createdAt,value
2019-03-26T00:02:08.000Z,24.79
2019-03-26T00:12:08.000Z,24.75
2019-03-26T00:22:08.000Z,24.7
2019-03-26T00:32:08.000Z,24.66
2019-03-26T00:42:08.000Z,24.65
2019-03-26T00:52:09.000Z,24.6
2019-03-26T01:02:08.000Z,24.53
2019-03-26T01:12:08.000Z,24.54
2019-03-26T01:22:08.000Z,24.47
2019-03-26T01:32:08.000Z,24.45
2019-03-26T01:42:08.000Z,24.47
2019-03-26T01:52:08.000Z,24.4
2019-03-26T02:02:08.000Z,24.47
2019-03-26T02:12:08.000Z,24.39
2019-03-26T02:22:08.000Z,24.44
2019-03-26T02:32:08.000Z,24.44
2019-03-26T02:42:09.000Z,24.35
2019-03-26T02:52:09.000Z,24.26
2019-03-26T03:02:09.000Z,24.35
2019-03-26T03:12:09.000Z,24.32
2019-03-26T03:22:09.000Z,24.28
2019-03-26T03:32:09.000Z,24.25
2019-03-26T03:42:09.000Z,24.2
2019-03-26T03:52:09.000Z,24.24
2019-03-26T04:02:09.000Z,24.38
2019-03-26T04:12:09.000Z,24.08
2019-03-26T04:22:09.000Z,24.02
2019-03-26T04:32:09.000Z,24.02
2019-03-26T04:42:09.000Z,24.03
2019-03-26T04:52:09.000Z,23.95
2019-03-26T05:12:09.000Z,23.92
2019-03-26T05:22:09.000Z,23.88
2019-03-26T05:32:09.000Z,23.85
2019-03-26T05:42:09.000Z,23.89
2019-03-26T05:52:09.000Z,23.9
2019-03-26T06:02:09.000Z,23.9
2019-03-26T06:12:09.000Z,23.89
2019-03-26T06:22:11.000Z,23.96
2019-03-26T06:32:09.000Z,23.89
2019-03-26T06:42:09.000Z,23.98
2019-03-26T06:52:10.000Z,24.03
2019-03-26T07:02:09.000Z,24.06
2019-03-26T07:12:09.000Z,24.12
2019-03-26T07:22:09.000Z,24.14
2019-03-26T07:32:09.000Z,24.12
2019-03-26T07:42:09.000Z,24.16
2019-03-26T08:02:09.000Z,24.18
2019-03-26T08:12:10.000Z,24.23
2019-03-26T08:22:09.000Z,24.32
2019-03-26T08:32:09.000Z,24.34
2019-03-26T08:42:09.000Z,24.38
2019-03-26T08:52:12.000Z,24.42
2019-03-26T09:02:09.000Z,24.5
2019-03-26T09:12:09.000Z,24.48
2019-03-26T09:22:12.000Z,24.52
2019-03-26T09:32:09.000Z,24.48
2019-03-26T09:42:09.000Z,24.5
2019-03-26T09:52:09.000Z,24.45
2019-03-26T10:02:09.000Z,24.48
2019-03-26T10:12:09.000Z,24.51
2019-03-26T10:22:09.000Z,24.53
2019-03-26T10:32:09.000Z,24.57
2019-03-26T10:42:09.000Z,24.57
2019-03-26T10:52:10.000Z,24.57
2019-03-26T11:02:10.000Z,24.68
2019-03-26T11:12:11.000Z,24.68
2019-03-26T11:22:10.000Z,24.74
2019-03-26T11:32:10.000Z,24.78
2019-03-26T11:42:10.000Z,24.81
2019-03-26T11:52:10.000Z,24.84
2019-03-26T12:02:10.000Z,24.82
2019-03-26T12:12:10.000Z,24.84
2019-03-26T12:22:10.000Z,24.89
2019-03-26T12:32:10.000Z,24.91
2019-03-26T12:42:10.000Z,24.93
2019-03-26T12:52:10.000Z,24.92
2019-03-26T13:02:10.000Z,24.9
2019-03-26T13:12:10.000Z,24.9
2019-03-26T13:22:10.000Z,24.9
2019-03-26T13:32:12.000Z,24.9
2019-03-26T13:42:10.000Z,24.87
2019-03-26T13:52:10.000Z,24.89
2019-03-26T14:02:10.000Z,24.89
2019-03-26T14:12:10.000Z,24.85
2019-03-26T14:22:10.000Z,24.91
2019-03-26T14:32:10.000Z,24.85
2019-03-26T14:42:10.000Z,24.85
2019-03-26T14:52:10.000Z,24.94
2019-03-26T15:02:10.000Z,24.89
2019-03-26T15:12:10.000Z,24.98
2019-03-26T15:22:10.000Z,24.93
2019-03-26T15:32:10.000Z,24.91
2019-03-26T15:42:10.000Z,24.91
2019-03-26T15:52:10.000Z,24.92
2019-03-26T16:02:10.000Z,24.94
2019-03-26T16:12:10.000Z,24.8
2019-03-26T16:22:10.000Z,24.91
2019-03-26T16:32:10.000Z,24.92
2019-03-26T16:42:10.000Z,24.9
2019-03-26T16:52:10.000Z,24.8
2019-03-26T17:02:10.000Z,24.9
2019-03-26T17:12:10.000Z,24.91
2019-03-26T17:22:10.000Z,24.86
2019-03-26T17:32:10.000Z,24.88
2019-03-26T17:42:10.000Z,24.87
2019-03-26T17:52:10.000Z,24.85
2019-03-26T18:02:11.000Z,24.87
2019-03-26T18:12:10.000Z,24.82
2019-03-26T18:22:10.000Z,24.8
2019-03-26T18:32:10.000Z,24.84
2019-03-26T18:42:10.000Z,24.88
2019-03-26T18:52:11.000Z,24.89
2019-03-26T19:02:11.000Z,24.88
2019-03-26T19:12:11.000Z,24.85
2019-03-26T19:22:12.000Z,24.86
2019-03-26T19:32:11.000Z,24.84
2019-03-26T19:42:11.000Z,24.87
2019-03-26T19:52:11.000Z,24.88
2019-03-26T20:02:11.000Z,24.82
2019-03-26T20:12:11.000Z,24.84
2019-03-26T20:22:11.000Z,24.81
2019-03-26T20:32:11.000Z,24.85
2019-03-26T20:42:11.000Z,24.85
2019-03-26T20:52:11.000Z,24.84
2019-03-26T21:02:11.000Z,24.85
2019-03-26T21:12:11.000Z,24.79
2019-03-26T21:22:12.000Z,24.8
2019-03-26T21:32:11.000Z,24.78
2019-03-26T21:42:11.000Z,24.76
2019-03-26T21:52:11.000Z,24.82
2019-03-26T22:02:14.000Z,24.82
2019-03-26T22:12:11.000Z,24.78
2019-03-26T22:22:11.000Z,24.78
2019-03-26T22:32:11.000Z,24.74
2019-03-26T22:42:11.000Z,24.68
2019-03-26T22:52:11.000Z,24.64
2019-03-26T23:02:11.000Z,24.57
2019-03-26T23:12:11.000Z,24.57
2019-03-26T23:22:11.000Z,24.5
2019-03-26T23:32:11.000Z,24.46
2019-03-26T23:42:11.000Z,24.39
2019-03-26T23:52:11.000Z,24.35
